Time;durP1;ratioP1;P1;durP2;ratioP2;P2;SDS_P1;SDS_P2;PMS_P1;PMS_P2;Temp;Humidity;BMP_temperature;BMP_pressure;BME280_temperature;BME280_humidity;BME280_pressure;Samples;Min_cycle;Max_cycle;Signal;HPM_P1;HPM_P2
2022/12/24 00:01:11;;;;;;;3.20;0.80;;;8.70;99.90;;;;;;5050740;28;20499;-73
2022/12/24 00:03:37;;;;;;;4.30;1.30;;;8.70;99.90;;;;;;5050508;28;20182;-73
2022/12/24 00:06:07;;;;;;;1.50;0.60;;;8.70;99.90;;;;;;5050413;28;20169;-73
2022/12/24 00:08:33;;;;;;;9.30;1.53;;;8.70;99.90;;;;;;5050955;28;21033;-73
2022/12/24 00:10:59;;;;;;;8.20;0.87;;;8.70;99.90;;;;;;5050513;28;20420;-73
2022/12/24 00:13:24;;;;;;;5.40;1.27;;;8.70;99.90;;;;;;5050323;28;20459;-73
2022/12/24 00:15:50;;;;;;;5.00;0.73;;;8.70;99.90;;;;;;5050300;28;20525;-73
2022/12/24 00:18:16;;;;;;;3.07;0.67;;;8.60;99.90;;;;;;5050837;28;20197;-73
2022/12/24 00:20:48;;;;;;;2.20;0.70;;;8.60;99.90;;;;;;5047351;28;20261;-73
2022/12/24 00:23:15;;;;;;;1.80;0.90;;;8.60;99.90;;;;;;5050136;28;20189;-73
2022/12/24 00:25:40;;;;;;;2.13;1.03;;;8.60;99.90;;;;;;5050469;28;20420;-73
2022/12/24 00:28:06;;;;;;;5.30;1.03;;;8.50;99.90;;;;;;5028489;28;20434;-73
2022/12/24 00:30:32;;;;;;;4.43;1.13;;;8.50;99.90;;;;;;5025569;28;20270;-73
2022/12/24 00:32:57;;;;;;;2.90;1.37;;;8.50;99.90;;;;;;5043626;28;20182;-73
2022/12/24 00:35:23;;;;;;;2.70;1.10;;;8.50;99.90;;;;;;5050428;28;20208;-73
2022/12/24 00:37:49;;;;;;;3.90;0.80;;;8.40;99.90;;;;;;5034356;28;20241;-73
2022/12/24 00:40:16;;;;;;;2.03;1.03;;;8.50;99.90;;;;;;5034212;28;20232;-73
2022/12/24 00:42:42;;;;;;;5.53;1.50;;;8.50;99.90;;;;;;5042781;28;20421;-73
2022/12/24 00:45:09;;;;;;;4.83;1.57;;;8.50;99.90;;;;;;5038458;28;20474;-73
2022/12/24 00:47:35;;;;;;;1.50;0.83;;;8.50;99.90;;;;;;5050670;28;20531;-73
2022/12/24 00:50:01;;;;;;;2.47;1.17;;;8.50;99.90;;;;;;5050493;28;20507;-74
2022/12/24 00:52:26;;;;;;;6.47;1.30;;;8.60;99.90;;;;;;5050065;28;20182;-73
2022/12/24 00:54:52;;;;;;;3.77;0.70;;;8.60;99.90;;;;;;5050294;28;20185;-74
2022/12/24 00:57:18;;;;;;;3.83;1.20;;;8.60;99.90;;;;;;5049717;28;20231;-74
2022/12/24 00:59:43;;;;;;;2.70;0.90;;;8.60;99.90;;;;;;5050359;28;20257;-74
2022/12/24 01:02:09;;;;;;;5.23;1.67;;;8.50;99.90;;;;;;5053459;28;20190;-74
2022/12/24 01:07:19;;;;;;;1.60;0.80;;;8.50;99.90;;;;;;5050813;28;20643;-74
2022/12/24 01:09:44;;;;;;;4.57;1.20;;;8.50;99.90;;;;;;5053491;28;20497;-74
2022/12/24 01:12:10;;;;;;;2.17;0.80;;;8.40;99.90;;;;;;5052800;28;20273;-74
2022/12/24 01:14:36;;;;;;;2.73;1.13;;;8.30;99.90;;;;;;5046006;28;20198;-74
2022/12/24 01:17:02;;;;;;;1.30;0.63;;;8.30;99.90;;;;;;5047545;28;20301;-74
2022/12/24 01:19:28;;;;;;;8.93;2.10;;;8.30;99.90;;;;;;5053740;28;20427;-73
2022/12/24 01:21:54;;;;;;;3.07;1.13;;;8.30;99.90;;;;;;5047963;28;20421;-74
2022/12/24 01:24:19;;;;;;;6.20;1.70;;;8.40;99.90;;;;;;5040711;28;20178;-74
2022/12/24 01:26:45;;;;;;;6.10;1.33;;;8.40;99.90;;;;;;5045348;28;20194;-74
2022/12/24 01:29:10;;;;;;;4.60;1.63;;;8.50;99.90;;;;;;5032878;28;20186;-74
2022/12/24 01:31:36;;;;;;;2.47;1.17;;;8.50;99.90;;;;;;5036942;28;20190;-76
2022/12/24 01:34:02;;;;;;;2.63;0.93;;;8.60;99.90;;;;;;5053211;28;20193;-73
2022/12/24 01:36:27;;;;;;;3.70;1.37;;;8.60;99.90;;;;;;5039956;28;20222;-74
2022/12/24 01:38:53;;;;;;;2.20;0.83;;;8.60;99.90;;;;;;5044352;28;20534;-74
2022/12/24 01:44:20;;;;;;;2.63;0.80;;;8.60;99.90;;;;;;5052926;28;20247;-74
2022/12/24 01:46:48;;;;;;;6.50;1.37;;;8.60;99.90;;;;;;5053218;28;20463;-74
2022/12/24 01:49:15;;;;;;;1.60;0.83;;;8.60;99.90;;;;;;5052841;28;20451;-74
2022/12/24 01:51:48;;;;;;;4.80;1.80;;;8.60;99.90;;;;;;5052355;28;20436;-74
2022/12/24 01:54:24;;;;;;;6.10;1.63;;;8.50;99.90;;;;;;5052542;28;20519;-74
2022/12/24 01:57:21;;;;;;;9.90;1.17;;;8.50;99.90;;;;;;5035606;28;20519;-74
2022/12/24 01:59:52;;;;;;;3.53;1.13;;;8.50;99.90;;;;;;5051821;28;20416;-74
2022/12/24 02:02:19;;;;;;;2.67;1.10;;;8.40;99.90;;;;;;5051537;28;20911;-74
2022/12/24 02:05:02;;;;;;;3.17;1.20;;;8.30;99.90;;;;;;5052344;28;20420;-74
2022/12/24 02:07:28;;;;;;;6.73;1.17;;;8.30;99.90;;;;;;5048901;28;20432;-74
2022/12/24 02:09:57;;;;;;;3.40;1.40;;;8.20;99.90;;;;;;5022698;28;20449;-74
2022/12/24 02:12:25;;;;;;;1.60;0.73;;;8.20;99.90;;;;;;5035512;28;21152;-74
2022/12/24 02:14:52;;;;;;;5.17;0.70;;;8.20;99.90;;;;;;5032905;28;20433;-74
2022/12/24 02:17:38;;;;;;;2.87;0.87;;;8.10;99.90;;;;;;5036822;28;21038;-74
2022/12/24 02:20:41;;;;;;;2.03;0.90;;;8.10;99.90;;;;;;5042712;28;20421;-74
2022/12/24 02:23:22;;;;;;;4.07;1.30;;;8.10;99.90;;;;;;5052170;28;20411;-74
2022/12/24 02:26:12;;;;;;;4.83;1.90;;;8.10;99.90;;;;;;5044616;28;20408;-74
2022/12/24 02:29:04;;;;;;;2.60;0.70;;;8.10;99.90;;;;;;5025521;28;20437;-74
2022/12/24 02:32:01;;;;;;;3.53;1.33;;;8.10;99.90;;;;;;5029891;28;20421;-75
2022/12/24 02:34:30;;;;;;;7.00;1.23;;;8.10;99.90;;;;;;5049093;28;20449;-74
2022/12/24 02:37:13;;;;;;;3.03;1.27;;;8.00;99.90;;;;;;5037800;28;20471;-74
2022/12/24 02:40:00;;;;;;;1.50;0.70;;;8.00;99.90;;;;;;5046841;28;20940;-74
2022/12/24 02:42:33;;;;;;;2.10;0.90;;;8.00;99.90;;;;;;5051989;28;20420;-75
2022/12/24 02:45:07;;;;;;;4.50;1.00;;;8.00;99.90;;;;;;5052002;28;20412;-74
2022/12/24 02:47:34;;;;;;;3.27;1.03;;;7.90;99.90;;;;;;5038636;28;20429;-74
2022/12/24 02:50:01;;;;;;;6.27;1.10;;;8.00;99.90;;;;;;5026683;28;20488;-74
2022/12/24 02:52:35;;;;;;;3.27;1.70;;;8.00;99.90;;;;;;5051110;28;20967;-74
2022/12/24 02:55:20;;;;;;;14.83;2.93;;;8.10;99.90;;;;;;5051675;28;20419;-73
2022/12/24 02:57:58;;;;;;;4.03;1.43;;;8.00;99.90;;;;;;5050424;28;20470;-74
2022/12/24 03:00:25;;;;;;;7.43;2.00;;;8.00;99.90;;;;;;5028854;28;20456;-74
2022/12/24 03:03:21;;;;;;;7.80;1.67;;;7.90;99.90;;;;;;5038739;28;20958;-74
2022/12/24 03:06:07;;;;;;;5.33;1.00;;;7.90;99.90;;;;;;5025572;28;20420;-74
2022/12/24 03:09:06;;;;;;;6.60;1.80;;;7.90;99.90;;;;;;5039159;28;20412;-74
2022/12/24 03:11:34;;;;;;;8.73;1.50;;;7.90;99.90;;;;;;5029224;28;20508;-73
2022/12/24 03:14:00;;;;;;;5.53;1.20;;;7.80;99.90;;;;;;5035674;28;20452;-74
2022/12/24 03:16:26;;;;;;;15.33;2.50;;;7.80;99.90;;;;;;5030787;28;20496;-74
2022/12/24 03:18:54;;;;;;;7.40;1.27;;;7.70;99.90;;;;;;5037786;28;20232;-74
2022/12/24 03:21:23;;;;;;;3.70;1.10;;;7.70;99.90;;;;;;5035987;28;20425;-73
2022/12/24 03:23:48;;;;;;;3.00;1.10;;;7.70;99.90;;;;;;5038386;28;20885;-73
2022/12/24 03:26:18;;;;;;;4.40;1.13;;;7.60;99.90;;;;;;5029213;28;20436;-74
2022/12/24 03:28:44;;;;;;;2.70;1.07;;;7.60;99.90;;;;;;5025719;28;20514;-74
2022/12/24 03:31:11;;;;;;;1.60;0.87;;;7.60;99.90;;;;;;5031140;28;20504;-74
2022/12/24 03:33:36;;;;;;;2.20;1.00;;;7.60;99.90;;;;;;5049286;28;20958;-74
2022/12/24 03:36:03;;;;;;;5.43;1.00;;;7.60;99.90;;;;;;5050850;28;20448;-73
2022/12/24 03:38:29;;;;;;;4.00;1.63;;;7.50;99.90;;;;;;5042783;28;20204;-74
2022/12/24 03:40:54;;;;;;;1.60;0.80;;;7.50;99.90;;;;;;5050783;28;20415;-73
2022/12/24 03:43:20;;;;;;;8.83;1.27;;;7.50;99.90;;;;;;5050550;28;20865;-74
2022/12/24 03:45:46;;;;;;;2.80;1.10;;;7.50;99.90;;;;;;5050466;28;20332;-74
2022/12/24 03:48:11;;;;;;;8.57;2.10;;;7.50;99.90;;;;;;5051018;28;20578;-74
2022/12/24 03:50:37;;;;;;;10.83;1.47;;;7.50;99.90;;;;;;5050623;28;20213;-74
2022/12/24 03:53:02;;;;;;;6.80;1.23;;;7.50;99.90;;;;;;5050738;28;20185;-74
2022/12/24 03:55:28;;;;;;;1.67;0.80;;;7.50;99.90;;;;;;5050921;28;20253;-74
2022/12/24 03:57:54;;;;;;;1.97;0.90;;;7.60;99.90;;;;;;5037885;28;20201;-73
2022/12/24 04:00:20;;;;;;;4.27;1.37;;;7.80;99.90;;;;;;5050749;28;20209;-73
2022/12/24 04:02:45;;;;;;;2.37;0.90;;;7.90;99.90;;;;;;5050714;28;20190;-73
2022/12/24 04:05:16;;;;;;;3.20;1.10;;;8.00;99.90;;;;;;5050540;28;20185;-73
2022/12/24 04:07:42;;;;;;;2.90;1.17;;;8.00;99.90;;;;;;5048583;28;20186;-73
2022/12/24 04:10:08;;;;;;;7.70;1.47;;;8.10;99.90;;;;;;5050597;28;21116;-73
2022/12/24 04:12:34;;;;;;;16.67;1.50;;;8.10;99.90;;;;;;5050041;28;20922;-73
2022/12/24 04:15:00;;;;;;;4.77;1.80;;;8.10;99.90;;;;;;5050082;28;20428;-73
2022/12/24 04:17:25;;;;;;;5.73;1.70;;;8.10;99.90;;;;;;5037246;28;20205;-73
2022/12/24 04:19:51;;;;;;;8.97;2.03;;;8.10;99.90;;;;;;5048857;28;20509;-73
2022/12/24 04:22:16;;;;;;;3.23;1.00;;;8.00;99.90;;;;;;5048047;28;20174;-73
2022/12/24 04:24:42;;;;;;;2.37;1.23;;;8.10;99.90;;;;;;5050589;28;20182;-73
2022/12/24 04:27:08;;;;;;;5.00;1.80;;;8.10;99.90;;;;;;5035009;28;20322;-73
2022/12/24 04:29:33;;;;;;;5.00;1.83;;;8.10;99.90;;;;;;5030239;28;20179;-73
2022/12/24 04:31:59;;;;;;;6.90;1.13;;;8.10;99.90;;;;;;5037202;28;20556;-73
2022/12/24 04:34:26;;;;;;;3.10;1.00;;;8.10;99.90;;;;;;5050547;28;20178;-73
2022/12/24 04:36:51;;;;;;;4.17;1.40;;;8.10;99.90;;;;;;5035524;28;20245;-73
2022/12/24 04:39:17;;;;;;;4.90;0.97;;;8.10;99.90;;;;;;5046259;28;20542;-73
2022/12/24 04:41:42;;;;;;;3.57;0.87;;;8.10;99.90;;;;;;5054193;28;20182;-73
2022/12/24 04:44:09;;;;;;;1.60;0.80;;;8.10;99.90;;;;;;5054574;28;20212;-73
2022/12/24 04:46:34;;;;;;;3.83;1.33;;;8.10;99.90;;;;;;5054937;28;20185;-74
2022/12/24 04:49:00;;;;;;;2.90;1.27;;;8.00;99.90;;;;;;5035561;28;20436;-73
2022/12/24 04:51:27;;;;;;;4.13;1.00;;;8.00;99.90;;;;;;5036764;28;20191;-73
2022/12/24 04:53:54;;;;;;;3.00;1.10;;;8.00;99.90;;;;;;5038596;28;20202;-73
2022/12/24 04:56:28;;;;;;;3.00;1.50;;;8.00;99.90;;;;;;5052873;28;20501;-73
2022/12/24 04:58:54;;;;;;;4.40;1.40;;;8.00;99.90;;;;;;5053972;28;20420;-73
2022/12/24 05:01:26;;;;;;;5.07;1.30;;;8.00;99.90;;;;;;5054403;28;20455;-73
2022/12/24 05:03:52;;;;;;;5.77;1.77;;;8.00;99.90;;;;;;5054433;28;20312;-73
2022/12/24 05:06:21;;;;;;;1.20;0.63;;;8.00;99.90;;;;;;5027169;28;20519;-73
2022/12/24 05:08:47;;;;;;;2.33;1.10;;;7.90;99.90;;;;;;5050913;28;20419;-73
2022/12/24 05:11:14;;;;;;;1.80;1.03;;;7.90;99.90;;;;;;5052040;28;20424;-73
2022/12/24 05:13:41;;;;;;;4.00;1.33;;;8.00;99.90;;;;;;5052401;28;20266;-73
2022/12/24 05:16:07;;;;;;;4.10;1.17;;;7.90;99.90;;;;;;5053053;28;20423;-73
2022/12/24 05:18:32;;;;;;;3.57;1.50;;;8.00;99.90;;;;;;5053483;28;20897;-73
2022/12/24 05:20:58;;;;;;;10.87;2.17;;;8.00;99.90;;;;;;5049036;28;20447;-73
2022/12/24 05:26:25;;;;;;;4.70;1.40;;;8.10;99.90;;;;;;5050536;28;20575;-73
2022/12/24 05:28:54;;;;;;;1.80;1.00;;;8.10;99.90;;;;;;5028825;28;20449;-73
2022/12/24 05:31:21;;;;;;;5.50;1.93;;;8.00;99.90;;;;;;5035527;28;20437;-73
2022/12/24 05:33:47;;;;;;;4.27;1.40;;;8.00;99.90;;;;;;5026349;28;20743;-73
2022/12/24 05:36:13;;;;;;;7.47;2.27;;;8.00;99.90;;;;;;5052890;28;20893;-73
2022/12/24 05:38:39;;;;;;;4.97;1.30;;;8.00;99.90;;;;;;5045204;28;20424;-72
2022/12/24 05:41:05;;;;;;;3.73;1.40;;;8.10;99.90;;;;;;5052873;28;20182;-73
2022/12/24 05:43:30;;;;;;;2.20;1.03;;;8.10;99.90;;;;;;5052347;28;20190;-73
2022/12/24 05:46:00;;;;;;;2.47;1.00;;;8.20;99.90;;;;;;5052027;28;20290;-73
2022/12/24 05:48:27;;;;;;;7.53;1.47;;;8.20;99.90;;;;;;5042473;28;20204;-72
2022/12/24 05:50:53;;;;;;;3.43;1.23;;;8.20;99.90;;;;;;5039487;28;20412;-73
2022/12/24 05:53:19;;;;;;;4.70;1.97;;;8.20;99.90;;;;;;5052430;28;20518;-73
2022/12/24 05:55:45;;;;;;;2.40;1.10;;;8.20;99.90;;;;;;5052356;28;20474;-73
2022/12/24 05:58:10;;;;;;;3.50;1.33;;;8.20;99.90;;;;;;5039982;28;20467;-73
2022/12/24 06:00:36;;;;;;;6.63;1.10;;;8.10;99.90;;;;;;5052456;28;20182;-72
2022/12/24 06:03:02;;;;;;;2.90;1.17;;;8.20;99.90;;;;;;5052331;28;20523;-72
2022/12/24 06:05:27;;;;;;;2.70;1.47;;;8.10;99.90;;;;;;5052493;28;20209;-72
2022/12/24 06:07:53;;;;;;;10.43;1.80;;;8.10;99.90;;;;;;5051116;28;20452;-72
2022/12/24 06:10:19;;;;;;;2.37;0.93;;;8.10;99.90;;;;;;5039219;28;20190;-73
2022/12/24 06:12:45;;;;;;;12.23;1.03;;;8.00;99.90;;;;;;5038666;28;20186;-72
2022/12/24 06:15:11;;;;;;;10.30;2.13;;;8.00;99.90;;;;;;5039324;28;20185;-73
2022/12/24 06:17:36;;;;;;;7.23;1.57;;;8.00;99.90;;;;;;5052691;28;20251;-73
2022/12/24 06:20:03;;;;;;;4.30;1.53;;;8.00;99.90;;;;;;5049895;28;20499;-73
2022/12/24 06:22:29;;;;;;;5.27;1.73;;;8.00;99.90;;;;;;5025397;28;20177;-73
2022/12/24 06:24:54;;;;;;;8.07;2.00;;;8.00;99.90;;;;;;5052170;28;20404;-73
2022/12/24 06:27:20;;;;;;;2.23;1.07;;;8.00;99.90;;;;;;5039295;28;20213;-73
2022/12/24 06:29:45;;;;;;;3.20;1.00;;;8.00;99.90;;;;;;5032123;28;20543;-73
2022/12/24 06:32:11;;;;;;;2.50;1.13;;;8.10;99.90;;;;;;5040571;28;20268;-73
2022/12/24 06:34:37;;;;;;;1.73;0.80;;;8.00;99.90;;;;;;5052210;28;20186;-73
2022/12/24 06:37:02;;;;;;;1.53;0.70;;;8.00;99.90;;;;;;5052081;28;20200;-73
2022/12/24 06:39:28;;;;;;;4.20;0.90;;;8.00;99.90;;;;;;5028608;28;20170;-73
2022/12/24 06:41:54;;;;;;;3.80;1.13;;;8.00;99.90;;;;;;5035388;28;20649;-72
2022/12/24 06:44:19;;;;;;;6.00;2.43;;;8.00;99.90;;;;;;5034377;28;20183;-73
2022/12/24 06:46:45;;;;;;;1.63;0.97;;;8.00;99.90;;;;;;5026968;28;20611;-73
2022/12/24 06:49:11;;;;;;;4.50;1.40;;;8.00;99.90;;;;;;5035153;28;20255;-73
2022/12/24 06:51:37;;;;;;;4.60;1.10;;;7.90;99.90;;;;;;5051672;28;20413;-73
2022/12/24 06:54:03;;;;;;;6.43;1.70;;;7.90;99.90;;;;;;5051505;28;20679;-73
2022/12/24 06:56:29;;;;;;;3.00;1.30;;;7.80;99.90;;;;;;5051940;28;20216;-73
2022/12/24 06:58:54;;;;;;;3.53;1.70;;;7.80;99.90;;;;;;5050931;28;20178;-73
2022/12/24 07:01:20;;;;;;;5.03;1.53;;;7.70;99.90;;;;;;5051791;28;20439;-73
2022/12/24 07:03:46;;;;;;;4.70;1.30;;;7.80;99.90;;;;;;5051381;28;20204;-73
2022/12/24 07:06:24;;;;;;;8.20;2.07;;;7.80;99.90;;;;;;5038338;28;20182;-73
2022/12/24 07:08:50;;;;;;;5.37;1.60;;;7.70;99.90;;;;;;5051057;28;20223;-73
2022/12/24 07:11:16;;;;;;;4.77;2.10;;;7.70;99.90;;;;;;5051694;28;20827;-73
2022/12/24 07:13:42;;;;;;;3.40;1.27;;;7.70;99.90;;;;;;5050795;28;20268;-73
2022/12/24 07:16:08;;;;;;;10.80;1.70;;;7.70;99.90;;;;;;5050965;28;20426;-73
2022/12/24 07:18:34;;;;;;;3.00;1.20;;;7.60;99.90;;;;;;5051024;28;20529;-73
2022/12/24 07:21:01;;;;;;;2.07;1.03;;;7.60;99.90;;;;;;5047783;28;20182;-73
2022/12/24 07:23:27;;;;;;;3.83;1.20;;;7.60;99.90;;;;;;5050521;28;20512;-73
2022/12/24 07:25:53;;;;;;;17.53;1.60;;;7.60;99.90;;;;;;5051154;28;20495;-73
2022/12/24 07:28:18;;;;;;;6.07;1.70;;;7.60;99.90;;;;;;5034638;28;20253;-73
2022/12/24 07:30:44;;;;;;;5.03;2.50;;;7.50;99.90;;;;;;5033993;28;20178;-73
2022/12/24 07:33:09;;;;;;;18.03;2.60;;;7.60;99.90;;;;;;5047938;28;20186;-73
2022/12/24 07:35:35;;;;;;;9.97;3.63;;;7.50;99.90;;;;;;5051113;28;20202;-73
2022/12/24 07:38:01;;;;;;;4.87;2.67;;;7.50;99.90;;;;;;5047945;28;20198;-72
2022/12/24 07:40:27;;;;;;;12.07;3.80;;;7.50;99.90;;;;;;5051144;28;20252;-73
2022/12/24 07:42:52;;;;;;;10.20;4.00;;;7.50;99.90;;;;;;5051019;28;20499;-73
2022/12/24 07:45:18;;;;;;;4.33;2.53;;;7.50;99.90;;;;;;5050615;28;20190;-73
2022/12/24 07:47:44;;;;;;;2.63;1.60;;;7.50;99.90;;;;;;5051353;28;20535;-72
2022/12/24 07:50:10;;;;;;;3.90;1.87;;;7.40;99.90;;;;;;5051009;28;20174;-72
2022/12/24 07:52:35;;;;;;;4.23;1.20;;;7.50;99.90;;;;;;5050348;28;20727;-73
2022/12/24 07:55:01;;;;;;;2.90;1.43;;;7.50;99.90;;;;;;5050844;28;20256;-73
2022/12/24 07:57:26;;;;;;;2.60;0.93;;;7.50;99.90;;;;;;5037362;28;20210;-73
2022/12/24 07:59:52;;;;;;;4.30;1.10;;;7.50;99.90;;;;;;5050355;28;20260;-73
2022/12/24 08:02:17;;;;;;;5.40;1.80;;;7.60;99.90;;;;;;5049887;28;20181;-73
2022/12/24 08:04:43;;;;;;;21.03;1.80;;;7.60;99.90;;;;;;5033271;28;20225;-74
2022/12/24 08:07:08;;;;;;;4.63;1.53;;;7.60;99.90;;;;;;5026138;28;20225;-74
2022/12/24 08:09:35;;;;;;;6.30;2.00;;;7.60;99.90;;;;;;5038844;28;20717;-74
2022/12/24 08:12:01;;;;;;;4.90;2.20;;;7.70;99.90;;;;;;5054232;28;20693;-74
2022/12/24 08:14:28;;;;;;;6.07;2.00;;;7.70;99.90;;;;;;5053971;28;20446;-73
2022/12/24 08:16:54;;;;;;;6.60;1.70;;;7.80;99.90;;;;;;5046459;28;20451;-73
2022/12/24 08:19:19;;;;;;;6.03;1.40;;;7.90;99.90;;;;;;5037735;28;20416;-74
2022/12/24 08:21:45;;;;;;;11.20;1.80;;;8.00;99.90;;;;;;5050390;28;20186;-74
2022/12/24 08:24:10;;;;;;;5.27;2.20;;;8.00;99.90;;;;;;5054001;28;20181;-74
2022/12/24 08:26:36;;;;;;;8.20;1.93;;;8.00;99.90;;;;;;5042980;28;20507;-74
2022/12/24 08:29:03;;;;;;;7.10;2.10;;;8.00;99.90;;;;;;5030843;28;20190;-74
2022/12/24 08:31:29;;;;;;;9.70;2.00;;;8.20;99.90;;;;;;5037851;28;20183;-74
2022/12/24 08:33:55;;;;;;;2.13;1.13;;;8.20;99.90;;;;;;5053860;28;20415;-74
2022/12/24 08:36:20;;;;;;;9.50;1.47;;;8.20;99.90;;;;;;5052758;28;20446;-74
2022/12/24 08:38:46;;;;;;;7.03;1.60;;;8.30;99.90;;;;;;5044709;28;21100;-73
2022/12/24 08:41:12;;;;;;;10.10;2.67;;;8.40;99.90;;;;;;5054148;28;20173;-74
2022/12/24 08:43:37;;;;;;;7.17;1.47;;;8.50;99.90;;;;;;5053287;28;20209;-74
2022/12/24 08:46:04;;;;;;;4.03;1.23;;;8.40;99.90;;;;;;5053376;28;20182;-74
2022/12/24 08:48:31;;;;;;;7.17;2.13;;;8.40;99.90;;;;;;5053807;28;20228;-74
2022/12/24 08:50:57;;;;;;;8.60;1.83;;;8.40;99.90;;;;;;5053505;28;20416;-73
2022/12/24 08:53:22;;;;;;;7.67;1.70;;;8.40;99.90;;;;;;5053047;28;20887;-73
2022/12/24 08:55:48;;;;;;;8.23;1.37;;;8.40;99.90;;;;;;5053649;28;20186;-74
2022/12/24 08:58:13;;;;;;;7.80;2.07;;;8.30;99.90;;;;;;5033572;28;20216;-74
2022/12/24 09:00:39;;;;;;;4.23;1.33;;;8.30;99.90;;;;;;5047254;28;20201;-74
2022/12/24 09:03:05;;;;;;;6.40;2.40;;;8.30;99.90;;;;;;5053038;28;20201;-74
2022/12/24 09:05:30;;;;;;;4.60;1.77;;;8.40;99.90;;;;;;5052968;28;20178;-74
2022/12/24 09:07:57;;;;;;;4.07;1.60;;;8.40;99.90;;;;;;5053495;28;20201;-73
2022/12/24 09:10:23;;;;;;;5.40;1.97;;;8.40;99.90;;;;;;5052699;28;20185;-74
2022/12/24 09:12:48;;;;;;;2.63;1.00;;;8.40;99.90;;;;;;5051590;28;20931;-74
2022/12/24 09:15:14;;;;;;;5.37;1.53;;;8.50;99.90;;;;;;5052203;28;20443;-74
2022/12/24 09:17:40;;;;;;;6.00;1.13;;;8.50;99.90;;;;;;5053566;28;20194;-74
2022/12/24 09:20:06;;;;;;;7.00;1.53;;;8.60;99.90;;;;;;5027958;28;20646;-74
2022/12/24 09:22:36;;;;;;;6.83;1.90;;;8.60;99.90;;;;;;5040387;28;20185;-74
2022/12/24 09:25:03;;;;;;;4.77;1.83;;;8.60;99.90;;;;;;5053073;28;20450;-74
2022/12/24 09:27:30;;;;;;;5.67;1.53;;;8.60;99.90;;;;;;5035523;28;20563;-74
2022/12/24 09:29:55;;;;;;;7.60;2.63;;;8.60;99.90;;;;;;5034175;28;21153;-74
2022/12/24 09:32:21;;;;;;;7.43;3.40;;;8.80;99.90;;;;;;5041408;28;20440;-74
2022/12/24 09:34:47;;;;;;;5.37;2.30;;;8.70;99.90;;;;;;5038980;28;20235;-73
2022/12/24 09:37:12;;;;;;;5.03;2.27;;;8.70;99.90;;;;;;5052880;28;20213;-74
2022/12/24 09:39:38;;;;;;;8.13;2.13;;;8.80;99.90;;;;;;5052869;28;20265;-74
2022/12/24 09:42:10;;;;;;;5.47;1.60;;;8.70;99.90;;;;;;5052500;28;20178;-74
2022/12/24 09:44:50;;;;;;;3.43;1.47;;;8.70;99.90;;;;;;5052299;28;20273;-74
2022/12/24 09:47:31;;;;;;;6.93;1.63;;;8.70;99.90;;;;;;5052902;28;20420;-74
2022/12/24 09:49:59;;;;;;;2.27;1.10;;;8.70;99.90;;;;;;5052573;28;20502;-74
2022/12/24 09:52:32;;;;;;;5.03;1.93;;;8.70;99.90;;;;;;5052289;28;20474;-74
2022/12/24 09:55:22;;;;;;;8.07;1.80;;;8.70;99.90;;;;;;5028199;28;20424;-74
2022/12/24 09:57:51;;;;;;;5.30;1.13;;;8.70;99.90;;;;;;5019363;28;20472;-74
2022/12/24 10:00:29;;;;;;;5.03;2.00;;;8.70;99.90;;;;;;5051818;28;20424;-75
2022/12/24 10:02:55;;;;;;;3.70;1.47;;;8.90;99.90;;;;;;5051899;28;20884;-74
2022/12/24 10:05:37;;;;;;;11.63;1.60;;;9.10;99.90;;;;;;5052171;28;20412;-74
2022/12/24 10:08:11;;;;;;;4.70;1.63;;;9.40;99.90;;;;;;5029056;28;20213;-74
2022/12/24 10:10:49;;;;;;;5.40;1.57;;;9.60;99.90;;;;;;5052644;28;20735;-74
2022/12/24 10:13:20;;;;;;;7.67;2.53;;;9.70;99.90;;;;;;5051913;28;20427;-75
2022/12/24 10:15:48;;;;;;;6.57;2.67;;;9.90;99.90;;;;;;5046862;28;20417;-74
2022/12/24 10:18:40;;;;;;;5.87;1.60;;;10.10;99.90;;;;;;5047498;28;20460;-75
2022/12/24 10:21:33;;;;;;;7.83;1.50;;;10.20;99.90;;;;;;5033415;28;20500;-75
2022/12/24 10:24:04;;;;;;;17.60;3.30;;;10.30;99.90;;;;;;5052920;28;20823;-75
2022/12/24 10:27:04;;;;;;;11.00;2.40;;;10.30;99.90;;;;;;5052538;28;20439;-76
2022/12/24 10:29:33;;;;;;;9.27;2.37;;;10.20;99.90;;;;;;5014410;28;20522;-77
2022/12/24 10:32:08;;;;;;;5.33;2.33;;;10.20;99.90;;;;;;5038353;28;20499;-77
2022/12/24 10:34:54;;;;;;;4.87;1.27;;;10.20;99.90;;;;;;5051771;28;20415;-74
2022/12/24 10:37:23;;;;;;;7.60;1.57;;;10.20;99.90;;;;;;5038112;28;21281;-74
2022/12/24 10:39:50;;;;;;;11.00;2.33;;;10.10;99.90;;;;;;5051372;28;20440;-74
2022/12/24 10:42:16;;;;;;;5.73;1.50;;;10.10;99.90;;;;;;5040432;28;20429;-74
2022/12/24 10:44:46;;;;;;;10.07;2.20;;;10.10;99.90;;;;;;5037785;28;20433;-74
2022/12/24 10:47:13;;;;;;;4.13;1.43;;;10.10;99.90;;;;;;5044910;28;20416;-76
2022/12/24 10:49:46;;;;;;;4.10;1.43;;;10.10;99.90;;;;;;5052011;28;20427;-77
2022/12/24 10:52:13;;;;;;;6.17;1.73;;;10.10;99.90;;;;;;5051845;28;20466;-75
2022/12/24 10:55:07;;;;;;;4.60;1.57;;;10.10;99.90;;;;;;5051924;28;20424;-75
2022/12/24 10:57:34;;;;;;;4.03;1.07;;;10.20;99.90;;;;;;5040180;28;20460;-75
2022/12/24 11:00:00;;;;;;;6.63;1.60;;;10.20;99.90;;;;;;5051116;28;20520;-75
2022/12/24 11:02:37;;;;;;;2.63;1.20;;;10.20;99.90;;;;;;5051746;28;20427;-75
2022/12/24 11:05:34;;;;;;;5.23;1.60;;;10.20;99.90;;;;;;5052014;28;20420;-75
2022/12/24 11:08:17;;;;;;;3.27;1.70;;;10.20;99.90;;;;;;5051922;28;20514;-75
2022/12/24 11:10:58;;;;;;;21.17;1.50;;;10.20;99.90;;;;;;5030455;28;20428;-75
2022/12/24 11:13:33;;;;;;;6.43;2.03;;;10.10;99.90;;;;;;5031589;28;20483;-75
2022/12/24 11:16:19;;;;;;;8.50;1.67;;;10.10;99.90;;;;;;5023489;28;20921;-75
2022/12/24 11:18:57;;;;;;;6.53;1.40;;;10.10;99.90;;;;;;5037274;28;20945;-75
2022/12/24 11:21:41;;;;;;;10.40;2.33;;;10.20;99.90;;;;;;5025100;28;20440;-74
2022/12/24 11:24:07;;;;;;;3.50;1.30;;;10.10;99.90;;;;;;5024111;28;20464;-73
2022/12/24 11:26:33;;;;;;;6.87;2.50;;;10.10;99.90;;;;;;5022016;28;20517;-75
2022/12/24 11:29:26;;;;;;;3.67;1.90;;;10.10;99.90;;;;;;5018714;28;20690;-75
2022/12/24 11:32:12;;;;;;;7.43;1.40;;;10.20;99.90;;;;;;5017943;28;20458;-75
2022/12/24 11:34:42;;;;;;;3.07;1.23;;;10.20;99.90;;;;;;5020120;28;20430;-74
2022/12/24 11:37:22;;;;;;;6.73;1.70;;;10.30;99.90;;;;;;5029795;28;20534;-74
2022/12/24 11:40:00;;;;;;;7.83;1.87;;;10.40;99.90;;;;;;5017580;28;20437;-75
2022/12/24 11:42:32;;;;;;;10.60;1.93;;;10.50;99.90;;;;;;5017866;28;20443;-75
2022/12/24 11:45:00;;;;;;;12.40;2.30;;;10.50;99.90;;;;;;5016006;28;20781;-74
2022/12/24 11:47:32;;;;;;;1.93;1.20;;;10.70;99.90;;;;;;5014666;28;20514;-75
2022/12/24 11:50:22;;;;;;;4.10;1.47;;;10.70;99.90;;;;;;5023566;28;20524;-75
2022/12/24 11:53:03;;;;;;;4.90;1.47;;;10.80;99.90;;;;;;5015913;28;20839;-74
2022/12/24 11:55:37;;;;;;;6.13;1.20;;;10.80;99.90;;;;;;5012996;28;22086;-74
2022/12/24 11:58:26;;;;;;;4.33;1.57;;;10.80;99.90;;;;;;5008586;28;20988;-74
2022/12/24 12:01:10;;;;;;;8.93;2.37;;;10.70;99.90;;;;;;5018149;28;20528;-74
2022/12/24 12:03:49;;;;;;;7.60;1.93;;;10.70;99.90;;;;;;5022738;28;20440;-74
2022/12/24 12:06:41;;;;;;;4.73;1.47;;;10.70;99.90;;;;;;5028806;28;21139;-74
2022/12/24 12:09:19;;;;;;;12.33;3.30;;;10.70;99.90;;;;;;5029467;28;20444;-74
2022/12/24 12:11:52;;;;;;;11.40;1.90;;;10.80;99.90;;;;;;5017883;28;20445;-74
2022/12/24 12:14:28;;;;;;;5.67;1.73;;;10.80;99.90;;;;;;5024509;28;20506;-75
2022/12/24 12:17:00;;;;;;;5.13;1.33;;;10.90;99.90;;;;;;5032070;28;20518;-75
2022/12/24 12:19:29;;;;;;;7.43;1.37;;;10.90;99.90;;;;;;5022592;28;20456;-74
2022/12/24 12:21:57;;;;;;;2.27;0.93;;;10.90;99.90;;;;;;5018096;28;20442;-75
2022/12/24 12:24:28;;;;;;;23.03;1.90;;;11.00;99.90;;;;;;5030790;28;20429;-75
2022/12/24 12:27:31;;;;;;;4.40;2.37;;;11.00;99.90;;;;;;5019240;28;20438;-74
2022/12/24 12:30:01;;;;;;;5.57;1.80;;;11.00;99.90;;;;;;5018688;28;20506;-74
2022/12/24 12:32:36;;;;;;;3.87;1.50;;;11.00;99.90;;;;;;5032522;28;20409;-75
2022/12/24 12:35:09;;;;;;;2.60;1.47;;;11.10;99.90;;;;;;5023987;28;20931;-73
2022/12/24 12:37:40;;;;;;;3.07;0.97;;;11.10;99.90;;;;;;5033009;28;20498;-73
2022/12/24 12:40:13;;;;;;;3.63;1.93;;;11.30;99.90;;;;;;5024583;28;20468;-73
2022/12/24 12:42:44;;;;;;;5.23;1.70;;;11.30;99.90;;;;;;5027056;28;20465;-73
2022/12/24 12:45:19;;;;;;;11.63;1.97;;;11.30;99.90;;;;;;5025788;28;20435;-72
2022/12/24 12:48:29;;;;;;;9.40;1.73;;;11.50;99.90;;;;;;5022311;28;20441;-73
2022/12/24 12:51:18;;;;;;;4.77;1.47;;;11.40;99.90;;;;;;4992799;28;20452;-73
2022/12/24 12:53:59;;;;;;;2.20;1.37;;;11.40;99.90;;;;;;5024701;28;20440;-73
2022/12/24 12:56:27;;;;;;;2.63;0.97;;;11.20;99.90;;;;;;5021059;28;20435;-73
2022/12/24 12:58:57;;;;;;;5.27;1.17;;;11.10;99.90;;;;;;5032654;28;20435;-73
2022/12/24 13:02:06;;;;;;;3.47;1.17;;;10.90;99.90;;;;;;5031608;28;20413;-73
2022/12/24 13:04:52;;;;;;;4.40;1.60;;;10.80;99.90;;;;;;5004706;28;20444;-73
2022/12/24 13:07:47;;;;;;;3.23;1.33;;;10.70;99.90;;;;;;5029537;28;20906;-73
2022/12/24 13:10:33;;;;;;;3.97;2.03;;;10.70;99.90;;;;;;5022284;28;20432;-73
2022/12/24 13:13:22;;;;;;;8.87;1.83;;;10.70;99.90;;;;;;5023328;28;20784;-73
2022/12/24 13:16:25;;;;;;;13.03;2.90;;;10.70;99.90;;;;;;5017882;28;20520;-73
2022/12/24 13:18:54;;;;;;;11.10;2.50;;;10.60;99.90;;;;;;5022057;28;20495;-73